createdAt,value
2022-11-16T00:00:09.143Z,66.15
2022-11-16T00:01:09.132Z,65.29
2022-11-16T00:02:09.141Z,64.06
2022-11-16T00:03:09.114Z,63.25
2022-11-16T00:04:09.113Z,63.54
2022-11-16T00:05:09.088Z,63.64
2022-11-16T00:06:09.077Z,64.90
2022-11-16T00:07:09.121Z,61.05
2022-11-16T00:08:09.056Z,65.25
2022-11-16T00:09:09.056Z,61.78
2022-11-16T00:10:09.038Z,61.73
2022-11-16T00:11:09.028Z,66.03
2022-11-16T00:12:09.017Z,63.56
2022-11-16T00:13:09.008Z,65.81
2022-11-16T00:14:09.108Z,65.17
2022-11-16T00:15:08.984Z,66.36
2022-11-16T00:16:08.976Z,58.85
2022-11-16T00:17:08.975Z,66.38
2022-11-16T00:18:08.954Z,64.71
2022-11-16T00:19:08.961Z,58.63
2022-11-16T00:20:08.935Z,59.17
2022-11-16T00:21:08.924Z,61.06
2022-11-16T00:22:08.917Z,64.86
2022-11-16T00:23:08.903Z,61.47
2022-11-16T00:24:08.897Z,63.33
2022-11-16T00:25:08.882Z,62.92
2022-11-16T00:26:08.870Z,59.69
2022-11-16T00:27:08.862Z,61.93
2022-11-16T00:28:08.846Z,67.99
2022-11-16T00:29:08.848Z,64.11
2022-11-16T00:30:08.827Z,63.75
2022-11-16T00:31:08.820Z,68.22
2022-11-16T00:32:08.805Z,68.18
2022-11-16T00:33:08.791Z,63.80
2022-11-16T00:34:08.798Z,62.36
2022-11-16T00:35:08.775Z,64.52
2022-11-16T00:36:08.763Z,62.87
2022-11-16T00:37:08.753Z,65.81
2022-11-16T00:38:08.741Z,68.74
2022-11-16T00:39:08.742Z,65.22
2022-11-16T00:40:08.731Z,58.22
2022-11-16T00:41:08.718Z,63.15
2022-11-16T00:42:08.701Z,66.61
2022-11-16T00:43:08.685Z,65.67
2022-11-16T00:44:08.693Z,62.69
2022-11-16T00:45:08.670Z,65.44
2022-11-16T00:46:08.656Z,60.08
2022-11-16T00:47:08.646Z,63.05
2022-11-16T00:48:08.641Z,63.05
2022-11-16T00:49:08.638Z,64.63
2022-11-16T00:50:08.618Z,64.42
2022-11-16T00:51:08.608Z,60.03
2022-11-16T00:52:08.594Z,68.01
2022-11-16T00:53:08.587Z,63.49
2022-11-16T00:54:08.584Z,62.25
2022-11-16T00:55:08.573Z,64.51
2022-11-16T00:56:08.551Z,60.32
2022-11-16T00:57:08.541Z,63.25
2022-11-16T00:58:08.534Z,62.23
2022-11-16T00:59:08.537Z,65.36
2022-11-16T01:00:08.519Z,67.71
2022-11-16T01:01:08.550Z,65.71
2022-11-16T01:02:08.493Z,65.59
2022-11-16T01:03:08.478Z,63.62
2022-11-16T01:04:08.480Z,65.55
2022-11-16T01:05:08.460Z,63.26
2022-11-16T01:06:08.449Z,64.17
2022-11-16T01:07:08.496Z,64.17
2022-11-16T01:08:08.431Z,63.30
2022-11-16T01:09:08.437Z,61.65
2022-11-16T01:10:08.410Z,67.08
2022-11-16T01:11:08.397Z,67.21
2022-11-16T01:12:08.391Z,64.62
2022-11-16T01:13:08.382Z,65.70
2022-11-16T01:14:08.387Z,64.16
2022-11-16T01:15:08.361Z,60.07
2022-11-16T01:16:08.347Z,66.88
2022-11-16T01:17:08.336Z,64.68
2022-11-16T01:18:08.329Z,68.70
2022-11-16T01:19:08.320Z,61.80
2022-11-16T01:20:08.305Z,64.17
2022-11-16T01:21:08.292Z,63.35
2022-11-16T01:22:08.283Z,65.77
2022-11-16T01:23:08.270Z,69.46
2022-11-16T01:24:08.271Z,66.17
2022-11-16T01:25:08.254Z,63.33
2022-11-16T01:26:08.240Z,64.11
2022-11-16T01:27:08.218Z,62.74
2022-11-16T01:28:09.223Z,66.88
2022-11-16T01:29:08.230Z,63.61
2022-11-16T01:30:08.206Z,67.57
2022-11-16T01:31:08.193Z,65.27
2022-11-16T01:32:08.182Z,66.36
2022-11-16T01:33:08.174Z,67.12
2022-11-16T01:34:08.180Z,68.21
2022-11-16T01:35:08.214Z,68.97
2022-11-16T01:36:08.141Z,66.08
2022-11-16T01:37:08.130Z,69.36
2022-11-16T01:38:08.120Z,69.39
2022-11-16T01:39:08.109Z,68.34
2022-11-16T01:40:08.128Z,67.15
2022-11-16T01:41:08.090Z,70.08
2022-11-16T01:42:08.076Z,66.42
2022-11-16T01:43:08.065Z,69.25
2022-11-16T01:44:08.058Z,70.27
2022-11-16T01:45:08.061Z,69.62
2022-11-16T01:46:08.038Z,65.96
2022-11-16T01:47:08.027Z,65.11
2022-11-16T01:48:08.028Z,67.20
2022-11-16T01:49:08.003Z,67.32
2022-11-16T01:50:08.007Z,70.32
2022-11-16T01:51:07.981Z,66.57
2022-11-16T01:52:07.970Z,71.40
2022-11-16T01:53:07.963Z,66.19
2022-11-16T01:54:07.952Z,68.23
2022-11-16T01:55:07.952Z,63.63
2022-11-16T01:56:07.934Z,64.58
2022-11-16T01:57:07.921Z,64.03
2022-11-16T01:58:07.910Z,62.56
2022-11-16T01:59:07.897Z,70.27
2022-11-16T02:00:07.910Z,65.81
2022-11-16T02:01:07.910Z,67.93
2022-11-16T02:02:07.873Z,66.95
2022-11-16T02:03:07.858Z,70.44
2022-11-16T02:04:07.847Z,69.37
2022-11-16T02:05:07.847Z,69.90
2022-11-16T02:06:07.864Z,68.00
2022-11-16T02:07:07.959Z,70.65
2022-11-16T02:08:07.807Z,66.81
2022-11-16T02:09:07.794Z,70.43
2022-11-16T02:10:07.796Z,67.76
2022-11-16T02:11:07.774Z,69.79
2022-11-16T02:12:07.772Z,66.29
2022-11-16T02:13:07.752Z,66.23
2022-11-16T02:14:07.743Z,69.48
2022-11-16T02:15:07.745Z,70.56
2022-11-16T02:16:07.723Z,68.10
2022-11-16T02:17:07.735Z,66.81
2022-11-16T02:18:07.704Z,70.18
2022-11-16T02:19:07.688Z,66.62
2022-11-16T02:20:07.694Z,69.57
2022-11-16T02:21:07.670Z,69.83
2022-11-16T02:22:07.658Z,69.00
2022-11-16T02:23:07.651Z,70.30
2022-11-16T02:24:07.639Z,68.20
2022-11-16T02:25:07.640Z,69.97
2022-11-16T02:26:07.619Z,68.94
2022-11-16T02:27:07.604Z,64.55
2022-11-16T02:28:07.595Z,67.23
2022-11-16T02:29:07.589Z,71.01
2022-11-16T02:30:07.590Z,69.25
2022-11-16T02:31:07.561Z,69.52
2022-11-16T02:32:07.550Z,69.88
2022-11-16T02:33:07.541Z,72.61
2022-11-16T02:34:07.535Z,69.63
2022-11-16T02:35:07.531Z,68.67
2022-11-16T02:36:07.515Z,69.58
2022-11-16T02:37:07.505Z,68.05
2022-11-16T02:38:07.493Z,70.90
2022-11-16T02:39:07.484Z,64.45
2022-11-16T02:40:07.483Z,71.84
2022-11-16T02:41:07.460Z,69.72
2022-11-16T02:42:07.452Z,70.58
2022-11-16T02:43:07.437Z,67.91
2022-11-16T02:44:07.457Z,67.16
2022-11-16T02:45:07.430Z,68.17
2022-11-16T02:46:07.408Z,69.56
2022-11-16T02:47:07.400Z,69.57
2022-11-16T02:48:07.399Z,66.26
2022-11-16T02:49:07.383Z,69.56
2022-11-16T02:50:07.380Z,73.21
2022-11-16T02:51:07.355Z,69.57
2022-11-16T02:52:07.341Z,68.87
2022-11-16T02:53:07.331Z,71.17
2022-11-16T02:54:07.323Z,69.43
2022-11-16T02:55:07.324Z,68.52
2022-11-16T02:56:07.304Z,68.48
2022-11-16T02:57:07.291Z,68.31
2022-11-16T02:58:07.276Z,71.12
2022-11-16T02:59:07.272Z,66.11
2022-11-16T03:00:07.273Z,66.80
2022-11-16T03:01:07.291Z,68.43
2022-11-16T03:02:07.239Z,68.02
2022-11-16T03:03:07.235Z,73.56
2022-11-16T03:04:07.225Z,72.31
2022-11-16T03:05:07.226Z,69.67
2022-11-16T03:06:07.196Z,71.31
2022-11-16T03:07:07.221Z,70.78
2022-11-16T03:08:07.186Z,71.62
2022-11-16T03:09:07.166Z,71.23
2022-11-16T03:10:07.167Z,69.85
2022-11-16T03:11:07.145Z,68.91
2022-11-16T03:12:07.136Z,71.80
2022-11-16T03:13:07.125Z,67.14
2022-11-16T03:14:07.115Z,71.61
2022-11-16T03:15:07.114Z,70.89
2022-11-16T03:16:07.096Z,68.53
2022-11-16T03:17:07.086Z,70.18
2022-11-16T03:18:07.074Z,70.22
2022-11-16T03:19:07.063Z,68.47
2022-11-16T03:20:07.060Z,66.51
2022-11-16T03:21:07.044Z,66.81
2022-11-16T03:22:07.032Z,69.56
2022-11-16T03:23:07.029Z,74.07
2022-11-16T03:24:07.022Z,73.54
2022-11-16T03:25:07.020Z,73.45
2022-11-16T03:26:07.013Z,70.73
2022-11-16T03:27:07.038Z,68.71
2022-11-16T03:28:06.992Z,70.53
2022-11-16T03:29:06.967Z,74.04
2022-11-16T03:30:06.960Z,72.86
2022-11-16T03:31:06.945Z,71.56
2022-11-16T03:32:06.931Z,71.83
2022-11-16T03:33:06.925Z,72.86
2022-11-16T03:34:06.917Z,72.64
2022-11-16T03:35:06.914Z,71.55
2022-11-16T03:36:06.892Z,73.45
2022-11-16T03:37:06.878Z,72.49
2022-11-16T03:38:06.870Z,70.44
2022-11-16T03:39:06.864Z,72.16
2022-11-16T03:40:06.865Z,74.33
2022-11-16T03:41:06.847Z,71.56
2022-11-16T03:42:06.834Z,75.46
2022-11-16T03:43:06.824Z,72.30
2022-11-16T03:44:06.809Z,66.64
2022-11-16T03:45:06.814Z,71.86
2022-11-16T03:46:06.798Z,71.66
2022-11-16T03:47:06.779Z,73.19
2022-11-16T03:48:06.768Z,71.07
2022-11-16T03:49:06.758Z,70.64
2022-11-16T03:50:06.763Z,72.56
2022-11-16T03:51:06.738Z,71.84
2022-11-16T03:52:06.724Z,72.09
2022-11-16T03:53:06.715Z,74.94
2022-11-16T03:54:06.709Z,71.55
2022-11-16T03:55:06.706Z,72.47
2022-11-16T03:56:06.697Z,71.78
2022-11-16T03:57:06.674Z,71.15
2022-11-16T03:58:06.660Z,75.18
2022-11-16T03:59:06.652Z,72.66
2022-11-16T04:00:06.657Z,72.45
2022-11-16T04:01:06.742Z,70.90
2022-11-16T04:02:06.622Z,73.70
2022-11-16T04:03:06.622Z,75.47
2022-11-16T04:04:06.612Z,69.28
2022-11-16T04:05:06.605Z,69.04
2022-11-16T04:06:06.582Z,72.62
2022-11-16T04:07:06.640Z,72.36
2022-11-16T04:08:06.559Z,71.54
2022-11-16T04:09:06.555Z,71.58
2022-11-16T04:10:06.553Z,71.82
2022-11-16T04:11:06.536Z,74.75
2022-11-16T04:12:06.525Z,71.73
2022-11-16T04:13:06.511Z,71.36
2022-11-16T04:14:09.098Z,71.90
2022-11-16T04:15:07.505Z,69.51
2022-11-16T04:16:06.483Z,73.21
2022-11-16T04:17:06.478Z,72.65
2022-11-16T04:18:06.462Z,74.38
2022-11-16T04:19:06.450Z,72.75
2022-11-16T04:20:06.452Z,72.98
2022-11-16T04:21:06.433Z,72.00
2022-11-16T04:22:06.422Z,73.53
2022-11-16T04:23:06.423Z,70.95
2022-11-16T04:24:06.410Z,72.58
2022-11-16T04:25:06.413Z,72.24
2022-11-16T04:26:06.386Z,74.76
2022-11-16T04:27:06.370Z,72.58
2022-11-16T04:28:06.360Z,71.46
2022-11-16T04:29:06.348Z,74.46
2022-11-16T04:30:06.354Z,72.20
2022-11-16T04:31:06.328Z,74.21
2022-11-16T04:32:06.313Z,72.47
2022-11-16T04:33:06.299Z,73.29
2022-11-16T04:34:06.299Z,72.87
2022-11-16T04:35:06.282Z,70.88
2022-11-16T04:36:06.283Z,74.27
2022-11-16T04:37:06.263Z,74.19
2022-11-16T04:38:06.262Z,73.71
2022-11-16T04:39:06.245Z,73.90
2022-11-16T04:40:06.250Z,71.44
2022-11-16T04:41:06.235Z,72.91
2022-11-16T04:42:06.212Z,73.08
2022-11-16T04:43:06.202Z,73.77
2022-11-16T04:44:06.198Z,75.41
2022-11-16T04:45:06.181Z,73.12
2022-11-16T04:46:06.191Z,73.92
2022-11-16T04:47:06.164Z,74.37
2022-11-16T04:48:06.153Z,74.96
2022-11-16T04:49:06.147Z,74.57
2022-11-16T04:50:06.135Z,71.69
2022-11-16T04:51:06.133Z,73.02
2022-11-16T04:52:06.114Z,74.28
2022-11-16T04:53:06.112Z,74.12
2022-11-16T04:54:06.087Z,72.47
2022-11-16T04:55:06.081Z,74.49
2022-11-16T04:56:06.078Z,73.76
2022-11-16T04:57:06.058Z,75.35
2022-11-16T04:58:06.051Z,73.98
2022-11-16T04:59:06.049Z,74.47
2022-11-16T05:00:06.054Z,72.60
2022-11-16T05:01:06.066Z,72.92
2022-11-16T05:02:06.005Z,74.22
2022-11-16T05:03:06.005Z,73.54
2022-11-16T05:04:05.987Z,73.79
2022-11-16T05:05:05.974Z,74.55
2022-11-16T05:06:05.974Z,73.54
2022-11-16T05:07:05.969Z,69.69
2022-11-16T05:08:05.945Z,74.30
2022-11-16T05:09:05.936Z,73.22
2022-11-16T05:10:05.921Z,75.21
2022-11-16T05:11:05.923Z,76.51
2022-11-16T05:12:05.903Z,73.19
2022-11-16T05:13:05.897Z,72.98
2022-11-16T05:14:05.885Z,75.47
2022-11-16T05:15:05.872Z,72.23
2022-11-16T05:16:05.867Z,75.09
2022-11-16T05:17:05.851Z,74.96
2022-11-16T05:18:05.837Z,72.98
2022-11-16T05:19:05.827Z,70.93
2022-11-16T05:20:05.829Z,73.44
2022-11-16T05:21:05.818Z,74.46
2022-11-16T05:22:05.797Z,72.23
2022-11-16T05:23:05.787Z,74.55
2022-11-16T05:24:05.788Z,74.25
2022-11-16T05:25:05.764Z,72.05
2022-11-16T05:26:05.764Z,73.44
2022-11-16T05:27:05.745Z,74.08
2022-11-16T05:28:05.735Z,74.68
2022-11-16T05:29:05.725Z,72.23
2022-11-16T05:30:05.715Z,74.62
2022-11-16T05:31:05.714Z,74.33
2022-11-16T05:32:05.701Z,74.58
2022-11-16T05:33:05.686Z,73.45
2022-11-16T05:34:05.677Z,72.95
2022-11-16T05:35:05.664Z,73.82
2022-11-16T05:36:05.668Z,72.63
2022-11-16T05:37:05.648Z,75.94
2022-11-16T05:38:05.639Z,73.82
2022-11-16T05:39:05.628Z,75.19
2022-11-16T05:40:05.630Z,74.65
2022-11-16T05:41:05.626Z,74.58
2022-11-16T05:42:05.604Z,72.25
2022-11-16T05:43:05.588Z,74.36
2022-11-16T05:44:05.580Z,72.80
2022-11-16T05:45:05.572Z,72.49
2022-11-16T05:46:05.574Z,74.28
2022-11-16T05:47:05.552Z,74.47
2022-11-16T05:48:05.545Z,72.74
2022-11-16T05:49:05.535Z,73.03
2022-11-16T05:50:05.521Z,73.31
2022-11-16T05:51:05.519Z,74.37
2022-11-16T05:52:05.505Z,74.02
2022-11-16T05:53:05.497Z,73.10
2022-11-16T05:54:05.481Z,75.81
2022-11-16T05:55:05.475Z,74.45
2022-11-16T05:56:05.523Z,74.70
2022-11-16T05:57:05.459Z,73.75
2022-11-16T05:58:05.443Z,76.52
2022-11-16T05:59:05.440Z,75.09
2022-11-16T06:00:05.429Z,73.92
2022-11-16T06:01:05.432Z,72.52
2022-11-16T06:02:05.409Z,74.28
2022-11-16T06:03:05.500Z,75.38
2022-11-16T06:04:05.387Z,73.96
2022-11-16T06:05:05.416Z,75.28
2022-11-16T06:06:05.372Z,76.39
2022-11-16T06:07:05.393Z,73.57
2022-11-16T06:08:05.346Z,75.16
2022-11-16T06:09:05.337Z,72.18
2022-11-16T06:10:05.326Z,75.18
2022-11-16T06:11:05.327Z,74.16
2022-11-16T06:12:05.300Z,75.56
2022-11-16T06:13:05.291Z,75.10
2022-11-16T06:14:05.290Z,74.91
2022-11-16T06:15:05.342Z,72.38
2022-11-16T06:16:05.472Z,73.94
2022-11-16T06:17:05.254Z,73.14
2022-11-16T06:18:05.246Z,73.92
2022-11-16T06:19:05.235Z,74.80
2022-11-16T06:20:05.293Z,73.48
2022-11-16T06:21:05.229Z,73.57
2022-11-16T06:22:05.213Z,74.07
2022-11-16T06:23:05.207Z,73.88
2022-11-16T06:24:05.188Z,74.98
2022-11-16T06:25:05.192Z,73.64
2022-11-16T06:26:05.175Z,73.16
2022-11-16T06:27:06.160Z,75.57
2022-11-16T06:28:07.851Z,74.98
2022-11-16T06:29:06.144Z,74.22
2022-11-16T06:30:05.134Z,75.67
2022-11-16T06:31:05.131Z,73.55
2022-11-16T06:32:05.201Z,73.94
2022-11-16T06:33:05.112Z,74.76
2022-11-16T06:34:05.097Z,75.89
2022-11-16T06:35:05.085Z,73.20
2022-11-16T06:36:05.088Z,74.68
2022-11-16T06:37:05.066Z,72.32
2022-11-16T06:38:05.061Z,71.53
2022-11-16T06:39:05.053Z,70.73
2022-11-16T06:40:05.042Z,73.80
2022-11-16T06:41:05.037Z,74.57
2022-11-16T06:42:05.020Z,74.25
2022-11-16T06:43:05.005Z,73.99
2022-11-16T06:44:05.003Z,71.00
2022-11-16T06:45:04.997Z,71.56
2022-11-16T06:46:04.997Z,73.50
2022-11-16T06:47:04.973Z,74.25
2022-11-16T06:48:05.238Z,74.13
2022-11-16T06:49:04.952Z,73.85
2022-11-16T06:50:04.957Z,73.98
2022-11-16T06:51:04.952Z,73.40
2022-11-16T06:52:04.940Z,73.62
2022-11-16T06:53:04.915Z,73.86
2022-11-16T06:54:04.904Z,72.76
2022-11-16T06:55:04.894Z,74.42
2022-11-16T06:56:04.906Z,74.41
2022-11-16T06:57:04.878Z,73.29
2022-11-16T06:58:04.874Z,72.45
2022-11-16T06:59:04.863Z,73.46
2022-11-16T07:00:04.878Z,74.79
2022-11-16T07:01:04.851Z,72.86
2022-11-16T07:02:04.887Z,73.37
2022-11-16T07:03:04.863Z,73.60
2022-11-16T07:04:04.815Z,73.40
2022-11-16T07:05:04.803Z,72.83
2022-11-16T07:06:04.796Z,73.95
2022-11-16T07:07:04.834Z,73.35
2022-11-16T07:08:04.774Z,74.72
2022-11-16T07:09:04.770Z,74.15
2022-11-16T07:10:04.757Z,75.03
2022-11-16T07:11:04.759Z,74.66
2022-11-16T07:12:04.736Z,74.72
2022-11-16T07:13:04.727Z,77.08
2022-11-16T07:14:04.717Z,74.80
2022-11-16T07:15:04.705Z,75.93
2022-11-16T07:16:04.692Z,74.30
2022-11-16T07:17:09.505Z,74.02
2022-11-16T07:18:05.687Z,75.74
2022-11-16T07:19:04.669Z,75.48
2022-11-16T07:20:04.722Z,76.26
2022-11-16T07:21:04.654Z,74.44
2022-11-16T07:22:04.648Z,73.96
2022-11-16T07:23:04.638Z,74.01
2022-11-16T07:24:04.626Z,73.43
2022-11-16T07:25:04.624Z,73.72
2022-11-16T07:26:04.610Z,73.54
2022-11-16T07:27:04.605Z,74.13
2022-11-16T07:28:04.588Z,74.29
2022-11-16T07:29:04.577Z,74.65
2022-11-16T07:30:04.568Z,73.07
2022-11-16T07:31:04.555Z,74.30
2022-11-16T07:32:04.554Z,74.67
2022-11-16T07:33:04.540Z,73.29
2022-11-16T07:34:04.533Z,73.50
2022-11-16T07:35:04.521Z,74.59
2022-11-16T07:36:04.511Z,73.90
2022-11-16T07:37:04.516Z,73.89
2022-11-16T07:38:04.496Z,73.85
2022-11-16T07:39:04.485Z,75.00
2022-11-16T07:40:04.473Z,73.69
2022-11-16T07:41:04.463Z,72.25
2022-11-16T07:42:04.463Z,72.61
2022-11-16T07:43:04.446Z,72.22
2022-11-16T07:44:07.372Z,74.79
2022-11-16T07:45:05.424Z,71.17
2022-11-16T07:47:06.419Z,73.14
2022-11-16T07:48:04.400Z,71.97
2022-11-16T07:49:09.819Z,72.84
2022-11-16T07:50:06.382Z,73.41
2022-11-16T07:51:04.563Z,71.30
2022-11-16T07:52:04.404Z,73.08
2022-11-16T07:53:04.349Z,72.22
2022-11-16T07:54:04.342Z,68.94
2022-11-16T07:55:04.380Z,73.54
2022-11-16T07:56:04.323Z,73.67
2022-11-16T07:57:04.332Z,71.98
2022-11-16T07:58:04.302Z,73.10
2022-11-16T07:59:04.309Z,71.65
2022-11-16T08:00:04.283Z,73.44
2022-11-16T08:01:04.273Z,72.69
2022-11-16T08:02:04.332Z,72.38
2022-11-16T08:03:04.256Z,72.26
2022-11-16T08:04:04.244Z,72.13
2022-11-16T08:05:04.233Z,73.45
2022-11-16T08:06:04.224Z,74.33
2022-11-16T08:07:04.260Z,73.27
2022-11-16T08:08:04.297Z,71.69
2022-11-16T08:09:04.203Z,72.46
2022-11-16T08:10:04.279Z,70.64
2022-11-16T08:11:04.173Z,73.63
2022-11-16T08:12:04.182Z,72.57
2022-11-16T08:13:04.168Z,73.75
2022-11-16T08:14:04.147Z,72.19
2022-11-16T08:15:04.143Z,71.67
2022-11-16T08:16:04.138Z,73.06
2022-11-16T08:17:04.111Z,71.46
2022-11-16T08:18:04.113Z,73.10
2022-11-16T08:19:04.093Z,72.46
2022-11-16T08:20:04.214Z,71.64
2022-11-16T08:21:04.092Z,73.45
2022-11-16T08:22:04.073Z,73.38
2022-11-16T08:23:04.056Z,72.89
2022-11-16T08:24:04.160Z,69.13
2022-11-16T08:25:04.042Z,73.04
2022-11-16T08:26:04.046Z,74.39
2022-11-16T08:27:04.021Z,72.36
2022-11-16T08:28:04.009Z,73.94
2022-11-16T08:29:04.003Z,73.07
2022-11-16T08:30:03.997Z,73.50
2022-11-16T08:31:03.999Z,73.88
2022-11-16T08:32:03.977Z,72.86
2022-11-16T08:33:03.984Z,74.13
2022-11-16T08:34:03.959Z,73.99
2022-11-16T08:35:03.946Z,73.29
2022-11-16T08:36:05.399Z,75.28
2022-11-16T08:37:03.939Z,73.32
2022-11-16T08:38:03.916Z,73.42
2022-11-16T08:39:03.908Z,73.75
2022-11-16T08:40:03.980Z,72.87
2022-11-16T08:41:03.888Z,72.83
2022-11-16T08:42:03.898Z,74.62
2022-11-16T08:43:03.867Z,73.10
2022-11-16T08:44:03.862Z,71.15
2022-11-16T08:45:03.857Z,75.65
2022-11-16T08:46:03.839Z,73.09
2022-11-16T08:47:03.844Z,71.98
2022-11-16T08:48:04.416Z,73.39
2022-11-16T08:49:04.813Z,72.84
2022-11-16T08:50:03.804Z,72.95
2022-11-16T08:51:19.283Z,74.68
2022-11-16T08:52:05.794Z,71.92
2022-11-16T08:53:03.769Z,71.03
2022-11-16T08:54:03.763Z,72.06
2022-11-16T08:55:03.753Z,71.74
2022-11-16T08:56:03.831Z,72.79
2022-11-16T08:57:03.746Z,73.08
2022-11-16T08:58:03.726Z,74.69
2022-11-16T08:59:03.715Z,73.55
2022-11-16T09:00:03.704Z,73.57
2022-11-16T09:01:03.736Z,73.36
2022-11-16T09:02:03.729Z,72.20
2022-11-16T09:03:03.677Z,72.80
2022-11-16T09:04:03.663Z,72.79
2022-11-16T09:05:03.656Z,71.54
2022-11-16T09:06:03.648Z,72.93
2022-11-16T09:07:03.674Z,70.48
2022-11-16T09:08:03.628Z,71.88
2022-11-16T09:09:03.614Z,72.90
2022-11-16T09:10:03.602Z,73.41
2022-11-16T09:11:03.589Z,71.62
2022-11-16T09:12:03.594Z,72.50
2022-11-16T09:13:03.571Z,71.78
2022-11-16T09:14:03.567Z,72.55
2022-11-16T09:15:03.559Z,72.16
2022-11-16T09:16:03.548Z,72.40
2022-11-16T09:17:03.547Z,70.94
2022-11-16T09:18:03.529Z,71.16
2022-11-16T09:19:03.515Z,71.94
2022-11-16T09:20:03.504Z,73.64
2022-11-16T09:21:03.492Z,71.58
2022-11-16T09:22:03.500Z,69.99
2022-11-16T09:23:03.476Z,71.95
2022-11-16T09:24:03.463Z,74.66
2022-11-16T09:25:03.464Z,70.89
2022-11-16T09:26:03.448Z,72.76
2022-11-16T09:27:04.450Z,71.93
2022-11-16T09:28:03.543Z,71.97
2022-11-16T09:29:03.431Z,70.86
2022-11-16T09:30:03.430Z,70.24
2022-11-16T09:31:03.399Z,69.13
2022-11-16T09:32:03.404Z,72.01
2022-11-16T09:33:03.395Z,71.24
2022-11-16T09:34:03.374Z,70.38
2022-11-16T09:35:03.374Z,71.81
2022-11-16T09:36:03.356Z,69.27
2022-11-16T09:37:03.351Z,71.51
2022-11-16T09:38:03.335Z,72.18
2022-11-16T09:39:29.535Z,71.72
2022-11-16T09:40:05.372Z,72.40
2022-11-16T09:41:03.305Z,71.26
2022-11-16T09:42:03.353Z,72.42
2022-11-16T09:43:03.295Z,71.10
2022-11-16T09:44:03.369Z,71.45
2022-11-16T09:45:03.267Z,72.04
2022-11-16T09:46:03.266Z,73.55
2022-11-16T09:47:03.257Z,71.32
2022-11-16T09:48:03.236Z,73.08
2022-11-16T09:49:03.224Z,70.03
2022-11-16T09:50:03.402Z,70.63
2022-11-16T09:51:04.221Z,70.82
2022-11-16T09:52:03.210Z,69.42
2022-11-16T09:53:03.191Z,69.79
2022-11-16T09:54:03.183Z,71.60
2022-11-16T09:55:03.167Z,71.77
2022-11-16T09:56:03.157Z,69.12
2022-11-16T09:57:05.619Z,69.50
2022-11-16T09:58:05.145Z,72.00
2022-11-16T09:59:03.130Z,70.52
2022-11-16T10:00:03.121Z,71.58
2022-11-16T10:01:03.151Z,72.25
2022-11-16T10:02:03.112Z,69.86
2022-11-16T10:03:03.117Z,71.48
2022-11-16T10:04:03.084Z,72.82
2022-11-16T10:05:03.102Z,69.87
2022-11-16T10:06:03.083Z,70.51
2022-11-16T10:07:03.105Z,72.76
2022-11-16T10:08:03.042Z,70.19
2022-11-16T10:09:03.035Z,72.87
2022-11-16T10:10:03.023Z,72.37
2022-11-16T10:11:03.012Z,71.50
2022-11-16T10:12:03.032Z,70.44
2022-11-16T10:13:02.996Z,71.43
2022-11-16T10:14:04.427Z,72.11
2022-11-16T10:15:03.975Z,70.49
2022-11-16T10:16:02.962Z,72.86
2022-11-16T10:17:02.977Z,70.67
2022-11-16T10:18:02.949Z,71.46
2022-11-16T10:19:02.939Z,72.36
2022-11-16T10:20:02.931Z,70.87
2022-11-16T10:21:02.917Z,70.90
2022-11-16T10:22:02.935Z,69.85
2022-11-16T10:23:02.898Z,72.00
2022-11-16T10:24:02.893Z,70.65
2022-11-16T10:25:02.887Z,70.98
2022-11-16T10:26:02.875Z,70.63
2022-11-16T10:27:02.862Z,70.04
2022-11-16T10:28:02.852Z,68.60
2022-11-16T10:29:02.838Z,69.97
2022-11-16T10:30:02.833Z,69.49
2022-11-16T10:31:02.820Z,69.76
2022-11-16T10:32:02.835Z,72.02
2022-11-16T10:33:06.678Z,69.82
2022-11-16T10:34:03.785Z,69.74
2022-11-16T10:35:02.772Z,69.84
2022-11-16T10:36:02.769Z,71.10
2022-11-16T10:37:02.768Z,70.90
2022-11-16T10:38:02.744Z,72.06
2022-11-16T10:39:02.736Z,71.13
2022-11-16T10:40:02.724Z,71.81
2022-11-16T10:41:02.714Z,71.74
2022-11-16T10:42:07.286Z,69.12
2022-11-16T10:43:04.691Z,70.79
2022-11-16T10:44:02.690Z,70.76
2022-11-16T10:45:02.671Z,70.72
2022-11-16T10:46:02.663Z,71.25
2022-11-16T10:47:02.656Z,71.24
2022-11-16T10:48:02.728Z,70.45
2022-11-16T10:49:02.628Z,73.30
2022-11-16T10:50:02.618Z,70.40
2022-11-16T10:51:02.619Z,72.98
2022-11-16T10:52:02.609Z,73.46
2022-11-16T10:53:02.587Z,73.59
2022-11-16T10:54:02.580Z,72.12
2022-11-16T10:55:02.571Z,72.90
2022-11-16T10:56:02.557Z,72.07
2022-11-16T10:57:02.568Z,70.55
2022-11-16T10:58:02.540Z,73.48
2022-11-16T10:59:02.524Z,72.85
2022-11-16T11:00:02.519Z,71.02
2022-11-16T11:01:02.603Z,72.38
2022-11-16T11:02:02.506Z,71.45
2022-11-16T11:03:02.481Z,72.41
2022-11-16T11:04:02.559Z,72.94
2022-11-16T11:05:02.459Z,70.90
2022-11-16T11:06:02.454Z,71.60
2022-11-16T11:07:02.491Z,72.19
2022-11-16T11:08:02.446Z,71.48
2022-11-16T11:09:02.415Z,70.21
2022-11-16T11:10:02.411Z,70.93
2022-11-16T11:11:02.397Z,70.72
2022-11-16T11:12:02.389Z,67.66
2022-11-16T11:13:02.392Z,71.21
2022-11-16T11:14:02.378Z,72.54
2022-11-16T11:15:02.356Z,72.44
2022-11-16T11:16:02.346Z,70.96
2022-11-16T11:17:02.334Z,71.30
2022-11-16T11:18:02.333Z,70.68
2022-11-16T11:19:02.316Z,71.88
2022-11-16T11:20:02.327Z,72.21
2022-11-16T11:21:02.301Z,68.86
2022-11-16T11:22:02.295Z,69.34
2022-11-16T11:23:02.287Z,69.55
2022-11-16T11:24:29.362Z,71.44
2022-11-16T11:25:04.254Z,73.03
2022-11-16T11:26:02.249Z,71.99
2022-11-16T11:27:02.233Z,70.54
2022-11-16T11:28:02.245Z,70.20
2022-11-16T11:29:02.213Z,71.15
2022-11-16T11:30:02.262Z,71.47
2022-11-16T11:31:02.193Z,71.72
2022-11-16T11:32:02.180Z,72.29
2022-11-16T11:33:02.187Z,71.76
2022-11-16T11:34:02.163Z,70.83
2022-11-16T11:35:02.155Z,71.09
2022-11-16T11:36:02.226Z,71.33
2022-11-16T11:37:02.135Z,69.40
2022-11-16T11:38:07.428Z,71.09
2022-11-16T11:39:04.161Z,73.02
2022-11-16T11:40:02.107Z,71.00
2022-11-16T11:41:02.086Z,71.50
2022-11-16T11:42:02.082Z,70.55
2022-11-16T11:43:02.088Z,71.05
2022-11-16T11:44:02.059Z,70.14
2022-11-16T11:45:02.042Z,70.48
2022-11-16T11:46:02.038Z,69.40
2022-11-16T11:48:04.032Z,69.23
2022-11-16T11:49:02.002Z,70.07
2022-11-16T11:50:01.986Z,64.84
2022-11-16T11:51:02.980Z,67.16
2022-11-16T11:52:02.055Z,66.71
2022-11-16T11:53:01.971Z,68.67
2022-11-16T11:54:01.953Z,68.30
2022-11-16T11:55:01.940Z,68.69
2022-11-16T11:56:01.931Z,68.67
2022-11-16T11:57:01.919Z,67.74
2022-11-16T11:58:01.921Z,69.37
2022-11-16T11:59:01.903Z,68.79
2022-11-16T12:00:01.909Z,70.84
2022-11-16T12:01:01.881Z,68.16
2022-11-16T12:02:01.866Z,69.36
2022-11-16T12:03:01.908Z,69.89
2022-11-16T12:04:01.852Z,67.33
2022-11-16T12:05:01.838Z,69.69
2022-11-16T12:06:01.825Z,70.39
2022-11-16T12:07:01.872Z,68.91
2022-11-16T12:08:01.819Z,69.68
2022-11-16T12:09:01.797Z,70.42
2022-11-16T12:10:01.784Z,70.77
2022-11-16T12:11:01.797Z,69.19
2022-11-16T12:12:01.775Z,69.39
2022-11-16T12:13:01.782Z,70.65
2022-11-16T12:14:01.747Z,69.29
2022-11-16T12:15:01.731Z,69.24
2022-11-16T12:16:01.724Z,71.06
2022-11-16T12:17:01.714Z,71.79
2022-11-16T12:18:01.717Z,69.81
2022-11-16T12:19:01.698Z,69.48
2022-11-16T12:20:01.686Z,68.22
2022-11-16T12:21:01.671Z,69.55
2022-11-16T12:22:01.664Z,70.48
2022-11-16T12:23:04.227Z,70.34
2022-11-16T12:24:02.727Z,70.17
2022-11-16T12:25:01.627Z,68.82
2022-11-16T12:26:01.621Z,69.34
2022-11-16T12:27:01.606Z,69.57
2022-11-16T12:28:01.611Z,68.90
2022-11-16T12:29:01.588Z,70.00
2022-11-16T12:30:01.578Z,70.26
2022-11-16T12:31:01.565Z,71.15
2022-11-16T12:32:01.576Z,71.64
2022-11-16T12:33:01.562Z,70.81
2022-11-16T12:34:01.532Z,70.79
2022-11-16T12:35:01.525Z,68.93
2022-11-16T12:36:01.509Z,69.75
2022-11-16T12:37:01.506Z,69.41
2022-11-16T12:38:01.501Z,69.29
2022-11-16T12:39:01.484Z,69.30
2022-11-16T12:40:01.555Z,69.58
2022-11-16T12:41:01.463Z,69.76
2022-11-16T12:42:01.451Z,67.63
2022-11-16T12:43:01.451Z,67.78
2022-11-16T12:44:01.428Z,66.90
2022-11-16T12:45:01.419Z,69.66
2022-11-16T12:46:01.408Z,69.28
2022-11-16T12:47:01.397Z,68.45
2022-11-16T12:48:01.400Z,66.69
2022-11-16T12:49:01.367Z,65.59
2022-11-16T12:50:02.365Z,67.39
2022-11-16T12:51:01.358Z,66.87
2022-11-16T12:52:01.342Z,67.79
2022-11-16T12:53:01.368Z,67.61
2022-11-16T12:54:01.339Z,68.12